createdAt,value
2022-11-05T00:00:36.453Z,7.80
2022-11-05T00:03:24.013Z,9.80
2022-11-05T00:06:12.790Z,8.00
2022-11-05T00:19:26.118Z,7.50
2022-11-05T00:34:53.608Z,7.30
2022-11-05T00:47:52.296Z,7.20
2022-11-05T00:50:23.194Z,6.60
2022-11-05T00:55:38.134Z,7.30
2022-11-05T00:58:07.974Z,7.00
2022-11-05T01:00:38.095Z,6.60
2022-11-05T01:03:10.606Z,6.20
2022-11-05T01:05:43.384Z,6.50
2022-11-05T01:10:44.373Z,6.50
2022-11-05T01:20:41.468Z,6.00
2022-11-05T01:38:08.268Z,6.10
2022-11-05T01:48:09.100Z,6.30
2022-11-05T01:50:47.504Z,6.30
2022-11-05T01:53:23.385Z,6.40
2022-11-05T01:55:59.621Z,5.90
2022-11-05T01:58:34.179Z,6.10
2022-11-05T02:06:03.296Z,6.20
2022-11-05T02:08:46.697Z,5.50
2022-11-05T02:16:25.357Z,6.00
2022-11-05T02:19:00.185Z,5.80
2022-11-05T02:21:58.811Z,5.80
2022-11-05T02:24:56.030Z,6.30
2022-11-05T02:27:55.974Z,5.70
2022-11-05T02:30:55.389Z,6.40
2022-11-05T02:33:37.659Z,6.60
2022-11-05T02:36:20.294Z,6.40
2022-11-05T02:38:58.243Z,6.50
2022-11-05T02:49:21.576Z,6.00
2022-11-05T02:54:28.324Z,6.90
2022-11-05T03:01:56.882Z,6.30
2022-11-05T03:04:27.219Z,6.40
2022-11-05T03:14:52.222Z,6.50
2022-11-05T03:17:30.884Z,7.00
2022-11-05T03:20:06.018Z,6.70
2022-11-05T03:22:41.434Z,6.70
2022-11-05T03:25:14.146Z,7.30
2022-11-05T03:30:18.050Z,6.90
2022-11-05T03:32:52.079Z,6.40
2022-11-05T03:37:52.654Z,6.70
2022-11-05T03:53:15.623Z,6.60
2022-11-05T05:09:52.544Z,5.60
2022-11-05T08:02:11.649Z,7.10
2022-11-05T08:29:32.320Z,7.70
2022-11-05T08:46:54.483Z,7.60
2022-11-05T09:04:17.010Z,10.10
2022-11-05T09:14:32.368Z,13.00
2022-11-05T09:19:31.264Z,14.20
2022-11-05T09:21:59.604Z,14.00
2022-11-05T09:26:58.270Z,14.20
2022-11-05T09:36:53.902Z,15.70
2022-11-05T09:39:22.158Z,15.40
2022-11-05T09:41:51.011Z,15.10
2022-11-05T09:44:23.474Z,14.40
2022-11-05T09:46:56.524Z,14.40
2022-11-05T09:49:29.048Z,13.20
2022-11-05T09:52:00.066Z,12.30
2022-11-05T09:54:33.305Z,12.10
2022-11-05T09:57:04.057Z,11.00
2022-11-05T10:04:46.383Z,10.90
2022-11-05T10:07:21.103Z,11.70
2022-11-05T10:09:52.613Z,11.60
2022-11-05T10:12:27.296Z,12.70
2022-11-05T10:15:08.912Z,13.50
2022-11-05T10:17:40.918Z,14.60
2022-11-05T10:20:17.802Z,15.30
2022-11-05T10:22:49.722Z,14.90
2022-11-05T10:25:20.761Z,15.10
2022-11-05T10:27:53.880Z,14.60
2022-11-05T10:30:23.245Z,14.20
2022-11-05T10:32:55.510Z,14.40
2022-11-05T10:35:25.157Z,13.90
2022-11-05T10:37:54.883Z,14.60
2022-11-05T10:40:32.812Z,14.30
2022-11-05T10:43:07.169Z,15.60
2022-11-05T10:45:45.302Z,14.90
2022-11-05T10:48:44.296Z,15.70
2022-11-05T10:51:13.355Z,15.70
2022-11-05T10:53:51.490Z,15.30
2022-11-05T10:56:34.582Z,16.00
2022-11-05T10:59:09.406Z,12.30
2022-11-05T11:04:17.458Z,14.50
2022-11-05T11:06:50.906Z,14.10
2022-11-05T11:09:24.232Z,13.90
2022-11-05T11:12:03.838Z,13.30
2022-11-05T11:17:26.894Z,12.20
2022-11-05T11:20:22.186Z,12.10
2022-11-05T11:23:05.890Z,12.20
2022-11-05T11:25:45.780Z,11.50
2022-11-05T11:28:23.902Z,12.10
2022-11-05T11:30:58.860Z,12.40
2022-11-05T11:33:30.168Z,12.30
2022-11-05T11:38:31.311Z,12.30
2022-11-05T11:41:18.949Z,12.90
2022-11-05T11:46:18.160Z,12.50
2022-11-05T11:51:20.089Z,12.40
2022-11-05T11:53:50.063Z,12.40
2022-11-05T11:56:21.258Z,12.50
2022-11-05T11:58:51.500Z,12.20
2022-11-05T12:01:52.881Z,12.30
2022-11-05T12:04:43.951Z,12.50
2022-11-05T12:07:27.793Z,12.40
2022-11-05T12:10:28.002Z,12.50
2022-11-05T12:13:28.506Z,13.30
2022-11-05T12:16:00.378Z,12.80
2022-11-05T12:18:36.834Z,12.90
2022-11-05T12:21:34.614Z,12.60
2022-11-05T12:24:30.723Z,13.10
2022-11-05T12:27:12.694Z,12.70
2022-11-05T12:29:53.258Z,12.40
2022-11-05T12:32:41.730Z,12.30
2022-11-05T12:35:24.232Z,12.40
2022-11-05T12:38:06.031Z,12.50
2022-11-05T12:40:53.116Z,12.70
2022-11-05T12:43:33.185Z,11.70
2022-11-05T12:46:14.771Z,12.50
2022-11-05T12:49:04.971Z,12.30
2022-11-05T12:51:48.466Z,12.00
2022-11-05T12:54:26.656Z,12.60
2022-11-05T12:56:59.663Z,12.60
2022-11-05T12:59:35.895Z,12.40
2022-11-05T13:02:26.882Z,12.30
2022-11-05T13:05:01.215Z,12.50
2022-11-05T13:07:33.134Z,12.40
2022-11-05T13:10:06.899Z,13.40
2022-11-05T13:12:40.133Z,13.00
2022-11-05T13:15:24.622Z,13.10
2022-11-05T13:18:01.062Z,12.90
2022-11-05T13:20:33.899Z,12.70
2022-11-05T13:23:07.241Z,12.40
2022-11-05T13:25:40.719Z,12.10
2022-11-05T13:28:19.790Z,12.10
2022-11-05T13:30:52.872Z,12.20
2022-11-05T13:33:26.825Z,11.70
2022-11-05T13:36:14.372Z,11.60
2022-11-05T13:39:03.549Z,11.70
2022-11-05T13:42:07.331Z,11.70
2022-11-05T13:44:59.537Z,11.40
2022-11-05T13:47:51.342Z,11.60
2022-11-05T13:50:53.254Z,12.10
2022-11-05T13:53:57.192Z,11.70
2022-11-05T13:56:44.212Z,12.20
2022-11-05T13:59:41.264Z,11.70
2022-11-05T14:02:19.298Z,12.20
2022-11-05T14:04:50.508Z,11.40
2022-11-05T14:07:23.881Z,11.50
2022-11-05T14:09:59.351Z,12.40
2022-11-05T14:12:30.753Z,11.90
2022-11-05T14:15:05.402Z,12.30
2022-11-05T14:17:36.579Z,11.70
2022-11-05T14:20:29.113Z,11.80
2022-11-05T14:23:30.808Z,11.40
2022-11-05T14:26:14.249Z,12.00
2022-11-05T14:28:46.965Z,11.70
2022-11-05T14:31:54.429Z,11.90
2022-11-05T14:34:25.363Z,11.80
2022-11-05T14:37:19.205Z,12.00
2022-11-05T14:39:49.524Z,12.10
2022-11-05T14:42:21.563Z,12.50
2022-11-05T14:44:59.564Z,12.10
2022-11-05T14:47:30.436Z,12.20
2022-11-05T14:50:03.877Z,12.10
2022-11-05T14:52:33.136Z,11.30
2022-11-05T14:55:03.858Z,11.60
2022-11-05T15:00:42.326Z,10.80
2022-11-05T15:03:29.790Z,11.10
2022-11-05T15:06:06.682Z,10.80
2022-11-05T15:08:38.920Z,10.50
2022-11-05T15:11:21.520Z,10.60
2022-11-05T15:13:59.537Z,11.00
2022-11-05T15:16:32.929Z,10.90
2022-11-05T15:19:02.585Z,10.80
2022-11-05T15:21:35.525Z,10.60
2022-11-05T15:24:04.982Z,10.40
2022-11-05T15:26:46.635Z,10.60
2022-11-05T15:29:19.670Z,10.60
2022-11-05T15:34:21.043Z,9.70
2022-11-05T15:36:52.000Z,10.40
2022-11-05T15:39:32.889Z,9.90
2022-11-05T15:42:05.916Z,10.10
2022-11-05T15:44:36.301Z,9.70
2022-11-05T15:47:12.339Z,9.80
2022-11-05T15:49:41.495Z,9.60
2022-11-05T15:52:13.201Z,9.90
2022-11-05T15:54:43.314Z,9.80
2022-11-05T15:57:30.112Z,9.90
2022-11-05T16:02:31.808Z,9.70
2022-11-05T16:05:02.173Z,9.80
2022-11-05T16:10:01.305Z,9.50
2022-11-05T16:12:35.611Z,9.80
2022-11-05T16:15:20.083Z,9.60
2022-11-05T16:17:52.403Z,9.70
2022-11-05T16:20:28.577Z,9.50
2022-11-05T16:22:59.041Z,9.60
2022-11-05T16:25:38.040Z,9.70
2022-11-05T16:28:20.511Z,9.90
2022-11-05T16:30:56.995Z,9.70
2022-11-05T16:33:27.430Z,9.80
2022-11-05T16:43:24.816Z,9.80
2022-11-05T16:45:55.741Z,9.60
2022-11-05T16:58:23.604Z,9.00
2022-11-05T17:00:53.745Z,9.70
2022-11-05T17:13:17.139Z,9.20
2022-11-05T17:15:49.403Z,9.10
2022-11-05T17:20:48.860Z,9.60
2022-11-05T17:23:19.477Z,9.40
2022-11-05T17:25:51.304Z,9.50
2022-11-05T17:28:20.667Z,9.20
2022-11-05T17:30:52.967Z,9.20
2022-11-05T17:35:52.272Z,9.10
2022-11-05T17:45:50.087Z,8.90
2022-11-05T17:48:18.807Z,9.50
2022-11-05T17:50:49.189Z,9.00
2022-11-05T17:53:19.800Z,9.40
2022-11-05T17:55:48.800Z,9.10
2022-11-05T18:00:47.371Z,9.60
2022-11-05T18:03:17.288Z,8.90
2022-11-05T18:05:45.653Z,9.20
2022-11-05T18:10:42.954Z,9.40
2022-11-05T18:20:43.394Z,8.60
2022-11-05T18:25:41.874Z,9.70
2022-11-05T18:35:43.765Z,9.30
2022-11-05T18:53:06.363Z,9.70
2022-11-05T19:05:32.329Z,9.30
2022-11-05T19:08:00.837Z,9.70
2022-11-05T19:10:31.102Z,9.60
2022-11-05T19:27:52.607Z,9.40
2022-11-05T19:45:45.693Z,9.70
2022-11-05T19:48:08.204Z,9.80
2022-11-05T20:00:34.336Z,9.80
2022-11-05T20:18:01.629Z,9.50
2022-11-05T20:28:00.040Z,9.80
2022-11-05T20:35:27.313Z,10.00
2022-11-05T20:52:52.537Z,9.50
2022-11-05T21:00:18.474Z,8.90
2022-11-05T21:10:16.203Z,9.20
2022-11-05T21:27:43.858Z,9.60
2022-11-05T21:40:11.547Z,9.40
2022-11-05T21:42:41.230Z,9.70
2022-11-05T21:58:33.881Z,9.90
2022-11-05T22:13:30.320Z,9.50
2022-11-05T22:26:00.959Z,9.00
2022-11-05T22:28:32.467Z,9.40
2022-11-05T22:33:32.943Z,9.70
2022-11-05T22:38:31.689Z,9.40
2022-11-05T22:46:05.920Z,8.80
2022-11-05T22:51:05.804Z,9.30
2022-11-05T22:53:36.504Z,8.80
2022-11-05T23:01:06.173Z,9.10
2022-11-05T23:11:38.801Z,9.50
2022-11-05T23:14:08.789Z,9.00
2022-11-05T23:22:31.109Z,9.30
2022-11-05T23:27:30.795Z,8.80
2022-11-05T23:32:32.185Z,8.90
2022-11-05T23:37:50.495Z,9.30
